createdAt,value
2022-11-22T00:00:19.112Z,7.81
2022-11-22T00:02:46.125Z,7.77
2022-11-22T00:05:13.058Z,7.78
2022-11-22T00:07:39.825Z,7.81
2022-11-22T00:10:08.156Z,7.84
2022-11-22T00:12:34.782Z,7.84
2022-11-22T00:15:01.383Z,7.85
2022-11-22T00:17:28.013Z,7.83
2022-11-22T00:19:54.646Z,7.85
2022-11-22T00:22:21.259Z,7.82
2022-11-22T00:24:48.003Z,7.81
2022-11-22T00:27:14.582Z,7.83
2022-11-22T00:29:41.197Z,7.80
2022-11-22T00:32:07.894Z,7.77
2022-11-22T00:34:34.476Z,7.76
2022-11-22T00:37:01.064Z,7.64
2022-11-22T00:39:27.936Z,7.63
2022-11-22T00:41:54.732Z,7.65
2022-11-22T00:44:21.360Z,7.64
2022-11-22T00:46:47.932Z,7.65
2022-11-22T00:49:14.505Z,7.70
2022-11-22T00:51:41.057Z,7.70
2022-11-22T00:54:07.766Z,7.71
2022-11-22T00:56:34.411Z,7.66
2022-11-22T00:59:01.114Z,7.65
2022-11-22T01:01:27.972Z,7.63
2022-11-22T01:03:54.572Z,7.65
2022-11-22T01:06:21.162Z,7.64
2022-11-22T01:08:48.349Z,7.57
2022-11-22T01:11:17.201Z,7.54
2022-11-22T01:13:43.992Z,7.57
2022-11-22T01:16:11.533Z,7.60
2022-11-22T01:18:38.232Z,7.65
2022-11-22T01:21:06.045Z,7.63
2022-11-22T01:23:33.740Z,7.57
2022-11-22T01:26:00.367Z,7.57
2022-11-22T01:28:27.600Z,7.57
2022-11-22T01:30:54.457Z,7.58
2022-11-22T01:33:21.442Z,7.59
2022-11-22T01:35:48.339Z,7.63
2022-11-22T01:38:14.923Z,7.58
2022-11-22T01:40:41.547Z,7.58
2022-11-22T01:43:28.012Z,7.66
2022-11-22T01:45:59.085Z,7.66
2022-11-22T01:49:01.463Z,7.69
2022-11-22T01:51:33.201Z,7.70
2022-11-22T01:54:04.683Z,7.75
2022-11-22T01:56:32.097Z,7.78
2022-11-22T01:59:02.424Z,7.80
2022-11-22T02:01:29.502Z,7.82
2022-11-22T02:03:57.094Z,7.82
2022-11-22T02:06:26.493Z,7.90
2022-11-22T02:08:57.962Z,7.85
2022-11-22T02:11:28.403Z,7.90
2022-11-22T02:13:57.702Z,7.93
2022-11-22T02:16:24.267Z,7.90
2022-11-22T02:18:50.851Z,7.94
2022-11-22T02:21:17.562Z,7.91
2022-11-22T02:24:06.769Z,7.87
2022-11-22T02:26:33.539Z,7.89
2022-11-22T02:29:04.867Z,7.86
2022-11-22T02:31:42.628Z,7.80
2022-11-22T02:34:12.915Z,7.81
2022-11-22T02:36:51.048Z,7.82
2022-11-22T02:39:21.743Z,7.77
2022-11-22T02:41:48.960Z,7.83
2022-11-22T02:44:15.930Z,7.84
2022-11-22T02:46:51.155Z,7.85
2022-11-22T02:49:19.526Z,7.84
2022-11-22T02:51:46.675Z,7.86
2022-11-22T02:54:13.314Z,7.89
2022-11-22T02:56:39.939Z,7.89
2022-11-22T02:59:06.550Z,7.92
2022-11-22T03:01:33.541Z,7.85
2022-11-22T03:04:00.252Z,7.90
2022-11-22T03:06:26.871Z,7.89
2022-11-22T03:08:56.622Z,7.84
2022-11-22T03:11:23.737Z,7.81
2022-11-22T03:13:50.662Z,7.76
2022-11-22T03:16:17.295Z,7.74
2022-11-22T03:18:43.921Z,7.77
2022-11-22T03:21:10.923Z,7.78
2022-11-22T03:23:37.679Z,7.76
2022-11-22T03:26:11.610Z,7.74
2022-11-22T03:28:38.409Z,7.74
2022-11-22T03:31:06.555Z,7.74
2022-11-22T03:33:34.245Z,7.67
2022-11-22T03:36:01.009Z,7.67
2022-11-22T03:38:27.590Z,7.67
2022-11-22T03:40:54.199Z,7.68
2022-11-22T03:43:21.309Z,7.70
2022-11-22T03:45:48.322Z,7.67
2022-11-22T03:48:14.924Z,7.65
2022-11-22T03:50:41.656Z,7.62
2022-11-22T03:53:08.738Z,7.58
2022-11-22T03:55:35.392Z,7.57
2022-11-22T03:58:02.277Z,7.59
2022-11-22T04:00:28.980Z,7.56
2022-11-22T04:02:55.601Z,7.59
2022-11-22T04:05:22.227Z,7.60
2022-11-22T04:07:49.295Z,7.54
2022-11-22T04:10:19.308Z,7.52
2022-11-22T04:12:48.765Z,7.54
2022-11-22T04:15:15.373Z,7.57
2022-11-22T04:17:45.354Z,7.56
2022-11-22T04:20:38.668Z,7.54
2022-11-22T04:23:33.485Z,7.46
2022-11-22T04:26:01.112Z,7.47
2022-11-22T04:28:47.080Z,7.46
2022-11-22T04:31:32.962Z,7.45
2022-11-22T04:33:59.530Z,7.44
2022-11-22T04:36:26.156Z,7.48
2022-11-22T04:38:52.734Z,7.50
2022-11-22T04:41:19.344Z,7.50
2022-11-22T04:44:04.766Z,7.45
2022-11-22T04:46:31.899Z,7.39
2022-11-22T04:48:58.679Z,7.39
2022-11-22T04:51:43.906Z,7.35
2022-11-22T04:54:10.508Z,7.32
2022-11-22T04:56:37.079Z,7.32
2022-11-22T04:59:03.686Z,7.32
2022-11-22T05:01:30.398Z,7.32
2022-11-22T05:03:57.205Z,7.30
2022-11-22T05:06:23.905Z,7.30
2022-11-22T05:08:50.515Z,7.35
2022-11-22T05:11:17.128Z,7.33
2022-11-22T05:13:43.926Z,7.34
2022-11-22T05:16:13.565Z,7.30
2022-11-22T05:18:40.510Z,7.27
2022-11-22T05:21:09.226Z,7.31
2022-11-22T05:23:54.727Z,7.26
2022-11-22T05:26:26.485Z,7.21
2022-11-22T05:28:53.180Z,7.23
2022-11-22T05:31:25.043Z,7.20
2022-11-22T05:33:53.000Z,7.19
2022-11-22T05:36:20.217Z,7.14
2022-11-22T05:38:47.090Z,7.11
2022-11-22T05:41:14.753Z,7.10
2022-11-22T05:43:41.501Z,7.04
2022-11-22T05:46:24.855Z,7.02
2022-11-22T05:48:52.569Z,7.04
2022-11-22T05:51:21.288Z,7.04
2022-11-22T05:53:48.216Z,7.12
2022-11-22T05:56:20.687Z,7.14
2022-11-22T05:58:47.628Z,7.08
2022-11-22T06:01:21.909Z,7.07
2022-11-22T06:03:49.163Z,7.04
2022-11-22T06:06:16.135Z,7.02
2022-11-22T06:08:45.269Z,7.00
2022-11-22T06:11:18.007Z,7.04
2022-11-22T06:13:52.125Z,7.06
2022-11-22T06:16:18.902Z,7.04
2022-11-22T06:18:45.677Z,7.05
2022-11-22T06:21:14.744Z,7.07
2022-11-22T06:23:41.377Z,7.10
2022-11-22T06:26:13.632Z,7.12
2022-11-22T06:28:46.650Z,7.07
2022-11-22T06:31:24.486Z,7.09
2022-11-22T06:33:53.245Z,7.12
2022-11-22T06:36:31.569Z,7.13
2022-11-22T06:38:58.362Z,7.14
2022-11-22T06:41:27.829Z,7.11
2022-11-22T06:43:56.343Z,7.13
2022-11-22T06:46:24.578Z,7.13
2022-11-22T06:48:51.222Z,7.21
2022-11-22T06:51:29.234Z,7.13
2022-11-22T06:54:14.177Z,7.10
2022-11-22T06:56:41.510Z,7.02
2022-11-22T06:59:08.896Z,7.09
2022-11-22T07:01:37.504Z,7.02
2022-11-22T07:04:05.371Z,7.10
2022-11-22T07:06:38.683Z,7.08
2022-11-22T07:09:07.689Z,7.09
2022-11-22T07:11:35.407Z,7.15
2022-11-22T07:14:07.601Z,7.09
2022-11-22T07:16:37.120Z,7.04
2022-11-22T07:19:03.805Z,7.03
2022-11-22T07:21:30.453Z,7.04
2022-11-22T07:23:57.188Z,7.02
2022-11-22T07:26:25.659Z,7.00
2022-11-22T07:28:52.491Z,6.95
2022-11-22T07:31:19.831Z,6.88
2022-11-22T07:33:46.825Z,6.76
2022-11-22T07:36:21.548Z,6.79
2022-11-22T07:38:48.913Z,6.75
2022-11-22T07:41:16.528Z,6.73
2022-11-22T07:43:43.127Z,6.83
2022-11-22T07:46:22.602Z,6.86
2022-11-22T07:48:49.824Z,6.85
2022-11-22T07:51:16.657Z,6.87
2022-11-22T07:53:49.288Z,6.95
2022-11-22T07:56:16.407Z,7.03
2022-11-22T07:58:43.245Z,7.10
2022-11-22T08:01:18.075Z,7.07
2022-11-22T08:03:54.881Z,7.15
2022-11-22T08:06:21.580Z,7.09
2022-11-22T08:08:48.179Z,7.10
2022-11-22T08:11:14.900Z,7.05
2022-11-22T08:13:41.754Z,7.10
2022-11-22T08:16:14.147Z,7.09
2022-11-22T08:18:41.974Z,7.12
2022-11-22T08:21:10.960Z,7.16
2022-11-22T08:23:38.524Z,7.19
2022-11-22T08:26:06.207Z,7.26
2022-11-22T08:28:33.060Z,7.33
2022-11-22T08:31:12.440Z,7.31
2022-11-22T08:33:39.934Z,7.32
2022-11-22T08:36:07.061Z,7.37
2022-11-22T08:38:33.758Z,7.41
2022-11-22T08:41:00.499Z,7.50
2022-11-22T08:43:27.211Z,7.53
2022-11-22T08:45:56.814Z,7.58
2022-11-22T08:48:24.531Z,7.61
2022-11-22T08:50:52.523Z,7.69
2022-11-22T08:53:19.207Z,7.82
2022-11-22T08:55:46.192Z,7.84
2022-11-22T08:58:12.889Z,7.84
2022-11-22T09:00:39.479Z,7.88
2022-11-22T09:03:06.111Z,7.88
2022-11-22T09:05:32.928Z,7.87
2022-11-22T09:10:46.516Z,7.94
2022-11-22T09:13:13.116Z,7.96
2022-11-22T09:15:39.760Z,8.00
2022-11-22T09:18:06.484Z,8.10
2022-11-22T09:20:33.185Z,8.19
2022-11-22T09:23:01.542Z,8.20
2022-11-22T09:25:28.141Z,8.27
2022-11-22T09:27:54.753Z,8.40
2022-11-22T09:30:21.811Z,8.40
2022-11-22T09:32:48.552Z,8.42
2022-11-22T09:35:17.345Z,8.41
2022-11-22T09:37:44.023Z,8.41
2022-11-22T09:40:16.977Z,8.43
2022-11-22T09:42:52.839Z,8.51
2022-11-22T09:45:34.154Z,8.65
2022-11-22T09:48:10.097Z,8.69
2022-11-22T09:51:15.574Z,8.77
2022-11-22T09:53:49.401Z,8.66
2022-11-22T09:56:17.191Z,8.59
2022-11-22T09:58:56.811Z,8.61
2022-11-22T10:01:27.721Z,8.73
2022-11-22T10:04:05.685Z,8.73
2022-11-22T10:06:35.143Z,8.71
2022-11-22T10:09:20.557Z,8.67
2022-11-22T10:12:09.401Z,8.76
2022-11-22T10:14:50.078Z,8.81
2022-11-22T10:17:25.891Z,8.88
2022-11-22T10:20:02.064Z,8.87
2022-11-22T10:22:29.835Z,8.80
2022-11-22T10:24:58.760Z,8.78
2022-11-22T10:27:32.929Z,8.80
2022-11-22T10:30:06.661Z,8.82
2022-11-22T10:32:48.542Z,8.90
2022-11-22T10:35:40.163Z,9.00
2022-11-22T10:38:26.880Z,9.22
2022-11-22T10:41:05.321Z,10.78
2022-11-22T10:43:44.108Z,12.91
2022-11-22T10:46:50.128Z,14.09
2022-11-22T10:49:45.667Z,14.43
2022-11-22T10:52:24.585Z,14.81
2022-11-22T10:55:14.787Z,13.35
2022-11-22T10:58:05.562Z,11.82
2022-11-22T11:00:33.265Z,10.65
2022-11-22T11:03:24.632Z,10.41
2022-11-22T11:09:36.635Z,11.50
2022-11-22T11:11:42.396Z,12.96
2022-11-22T11:14:19.003Z,13.99
2022-11-22T11:16:46.475Z,14.46
2022-11-22T11:19:19.148Z,14.23
2022-11-22T11:21:46.160Z,15.00
2022-11-22T11:24:15.089Z,15.08
2022-11-22T11:26:43.930Z,15.44
2022-11-22T11:29:19.513Z,15.27
2022-11-22T11:31:51.117Z,14.99
2022-11-22T11:34:20.750Z,15.40
2022-11-22T11:36:47.661Z,15.18
2022-11-22T11:39:21.625Z,14.29
2022-11-22T11:41:48.730Z,13.58
2022-11-22T11:44:36.447Z,12.41
2022-11-22T11:47:04.758Z,12.11
2022-11-22T11:49:33.677Z,12.22
2022-11-22T11:52:34.362Z,12.11
2022-11-22T11:55:02.433Z,11.85
2022-11-22T11:57:31.392Z,11.13
2022-11-22T11:59:59.899Z,10.68
2022-11-22T12:02:38.868Z,10.59
2022-11-22T12:05:21.367Z,10.90
2022-11-22T12:07:48.468Z,10.98
2022-11-22T12:10:31.027Z,10.50
2022-11-22T12:13:18.300Z,10.16
2022-11-22T12:16:09.323Z,10.29
2022-11-22T12:18:45.522Z,10.64
2022-11-22T12:21:34.430Z,10.55
2022-11-22T12:24:41.332Z,10.31
2022-11-22T12:26:57.937Z,10.20
2022-11-22T12:29:24.689Z,10.00
2022-11-22T12:32:06.689Z,10.00
2022-11-22T12:34:37.024Z,9.98
2022-11-22T12:37:18.086Z,9.90
2022-11-22T12:39:49.326Z,9.96
2022-11-22T12:42:32.496Z,9.94
2022-11-22T12:45:02.881Z,9.88
2022-11-22T12:47:34.039Z,9.92
2022-11-22T12:50:08.637Z,9.94
2022-11-22T12:52:48.763Z,9.92
2022-11-22T12:55:24.141Z,9.93
2022-11-22T12:58:12.561Z,9.90
2022-11-22T13:01:06.017Z,9.88
2022-11-22T13:03:38.397Z,9.84
2022-11-22T13:06:07.479Z,9.83
2022-11-22T13:08:37.076Z,9.82
2022-11-22T13:11:27.470Z,9.81
2022-11-22T13:14:21.449Z,9.81
2022-11-22T13:16:50.059Z,9.82
2022-11-22T13:19:17.644Z,9.79
2022-11-22T13:22:10.654Z,9.77
2022-11-22T13:25:19.072Z,9.73
2022-11-22T13:27:49.006Z,9.64
2022-11-22T13:30:21.706Z,9.63
2022-11-22T13:32:54.302Z,9.66
2022-11-22T13:35:31.468Z,9.70
2022-11-22T13:38:05.089Z,9.69
2022-11-22T13:40:35.242Z,9.65
2022-11-22T13:43:19.681Z,9.63
2022-11-22T13:46:00.992Z,9.65
2022-11-22T13:48:39.694Z,9.62
2022-11-22T13:51:07.841Z,9.63
2022-11-22T13:53:37.141Z,9.65
2022-11-22T13:56:15.973Z,9.66
2022-11-22T13:58:51.782Z,9.62
2022-11-22T14:01:34.107Z,9.67
2022-11-22T14:04:16.154Z,9.66
2022-11-22T14:06:50.326Z,9.66
2022-11-22T14:09:26.809Z,9.66
2022-11-22T14:12:10.210Z,9.66
2022-11-22T14:14:49.166Z,9.63
2022-11-22T14:17:41.482Z,9.63
2022-11-22T14:20:26.989Z,9.64
2022-11-22T14:23:30.711Z,9.72
2022-11-22T14:26:28.815Z,9.70
2022-11-22T14:29:11.020Z,9.67
2022-11-22T14:31:38.067Z,9.63
2022-11-22T14:34:25.673Z,9.64
2022-11-22T14:37:10.535Z,9.62
2022-11-22T14:39:53.533Z,9.60
2022-11-22T14:42:35.460Z,9.59
2022-11-22T14:45:11.297Z,9.60
2022-11-22T14:47:46.055Z,9.58
2022-11-22T14:50:18.966Z,9.50
2022-11-22T14:52:47.040Z,9.40
2022-11-22T14:55:19.536Z,9.38
2022-11-22T14:57:48.300Z,9.41
2022-11-22T15:00:20.650Z,9.39
2022-11-22T15:03:06.201Z,9.34
2022-11-22T15:09:11.673Z,9.37
2022-11-22T15:09:19.465Z,9.42
2022-11-22T15:11:55.660Z,9.43
2022-11-22T15:14:40.516Z,9.40
2022-11-22T15:57:26.712Z,9.28
2022-11-22T15:59:54.466Z,9.27
2022-11-22T16:02:21.825Z,9.31
2022-11-22T16:06:04.716Z,9.24
2022-11-22T16:07:49.484Z,9.20
2022-11-22T16:10:22.917Z,9.22
2022-11-22T16:12:50.638Z,9.21
2022-11-22T16:15:27.803Z,9.17
2022-11-22T16:18:07.822Z,9.19
2022-11-22T16:20:36.482Z,9.21
2022-11-22T16:23:27.133Z,9.16
2022-11-22T16:25:57.124Z,9.14
2022-11-22T16:28:30.034Z,9.09
2022-11-22T16:30:58.826Z,9.04
2022-11-22T16:33:25.787Z,9.04
2022-11-22T16:35:54.251Z,8.98
2022-11-22T16:38:23.583Z,8.95
2022-11-22T16:40:50.494Z,8.96
2022-11-22T16:43:24.674Z,8.89
2022-11-22T16:45:51.526Z,8.92
2022-11-22T16:48:36.370Z,8.91
2022-11-22T16:51:06.140Z,8.88
2022-11-22T16:53:53.445Z,8.85
2022-11-22T16:56:28.830Z,8.80
2022-11-22T16:59:01.637Z,8.84
2022-11-22T17:01:34.331Z,8.83
2022-11-22T17:04:01.873Z,8.83
2022-11-22T17:06:29.910Z,8.79
2022-11-22T17:08:57.940Z,8.73
2022-11-22T17:11:27.019Z,8.66
2022-11-22T17:13:54.161Z,8.63
2022-11-22T17:16:23.468Z,8.61
2022-11-22T17:18:50.263Z,8.50
2022-11-22T17:21:25.362Z,8.48
2022-11-22T17:23:53.512Z,8.43
2022-11-22T17:26:20.293Z,8.49
2022-11-22T17:28:46.987Z,8.47
2022-11-22T17:31:15.926Z,8.42
2022-11-22T17:33:43.063Z,8.44
2022-11-22T17:36:34.000Z,8.44
2022-11-22T17:39:02.608Z,8.44
2022-11-22T17:41:30.700Z,8.39
2022-11-22T17:43:57.854Z,8.45
2022-11-22T17:46:24.861Z,8.49
2022-11-22T17:48:56.300Z,8.46
2022-11-22T17:51:23.079Z,8.43
2022-11-22T17:53:50.063Z,8.44
2022-11-22T17:56:16.887Z,8.43
2022-11-22T17:58:43.607Z,8.47
2022-11-22T18:01:21.389Z,8.44
2022-11-22T18:03:48.424Z,8.44
2022-11-22T18:06:15.760Z,8.50
2022-11-22T18:08:46.915Z,8.47
2022-11-22T18:11:14.713Z,8.55
2022-11-22T18:13:41.593Z,8.54
2022-11-22T18:16:12.338Z,8.55
2022-11-22T18:21:26.737Z,8.60
2022-11-22T18:23:53.399Z,8.60
2022-11-22T18:31:54.607Z,8.57
2022-11-22T18:34:22.491Z,8.58
2022-11-22T18:37:01.360Z,8.61
2022-11-22T18:39:35.521Z,8.61
2022-11-22T18:42:04.166Z,8.54
2022-11-22T18:44:30.938Z,8.51
2022-11-22T18:46:57.611Z,8.43
2022-11-22T18:49:24.325Z,8.45
2022-11-22T18:51:51.082Z,8.46
2022-11-22T18:54:18.584Z,8.45
2022-11-22T18:56:51.224Z,8.44
2022-11-22T18:59:17.962Z,8.41
2022-11-22T19:01:44.713Z,8.46
2022-11-22T19:04:15.551Z,8.48
2022-11-22T19:06:43.390Z,8.51
2022-11-22T19:09:10.458Z,8.49
2022-11-22T19:11:37.492Z,8.48
2022-11-22T19:14:04.698Z,8.47
2022-11-22T19:16:31.756Z,8.45
2022-11-22T19:18:59.329Z,8.49
2022-11-22T19:21:28.114Z,8.47
2022-11-22T19:23:55.755Z,8.45
2022-11-22T19:26:24.376Z,8.49
2022-11-22T19:28:55.848Z,8.49
2022-11-22T19:31:25.186Z,8.47
2022-11-22T19:33:52.097Z,8.53
2022-11-22T19:36:30.513Z,8.50
2022-11-22T19:38:59.270Z,8.49
2022-11-22T19:41:26.012Z,8.46
2022-11-22T19:43:52.719Z,8.44
2022-11-22T19:46:22.209Z,8.47
2022-11-22T19:48:56.866Z,8.55
2022-11-22T19:51:24.829Z,8.48
2022-11-22T19:53:59.584Z,8.52
2022-11-22T19:56:30.274Z,8.51
2022-11-22T19:58:58.231Z,8.52
2022-11-22T20:01:27.111Z,8.54
2022-11-22T20:03:57.065Z,8.54
2022-11-22T20:06:23.991Z,8.57
2022-11-22T20:08:50.774Z,8.51
2022-11-22T20:11:19.621Z,8.48
2022-11-22T20:13:50.886Z,8.50
2022-11-22T20:16:21.128Z,8.51
2022-11-22T20:18:48.731Z,8.55
2022-11-22T20:21:19.076Z,8.53
2022-11-22T20:23:48.916Z,8.56
2022-11-22T20:26:16.355Z,8.58
2022-11-22T20:28:44.480Z,8.67
2022-11-22T20:31:15.929Z,8.71
2022-11-22T20:33:44.459Z,8.77
2022-11-22T20:36:13.081Z,8.72
2022-11-22T20:38:41.477Z,8.75
2022-11-22T20:41:09.571Z,8.74
2022-11-22T20:43:36.876Z,8.74
2022-11-22T20:46:11.481Z,8.73
2022-11-22T20:48:39.782Z,8.81
2022-11-22T20:51:12.357Z,8.87
2022-11-22T20:53:39.109Z,8.95
2022-11-22T20:56:06.207Z,8.87
2022-11-22T20:58:33.073Z,8.91
2022-11-22T21:00:59.721Z,8.91
2022-11-22T21:03:27.543Z,8.90
2022-11-22T21:05:55.330Z,8.94
2022-11-22T21:08:22.986Z,8.90
2022-11-22T21:10:49.658Z,8.91
2022-11-22T21:13:16.304Z,8.86
2022-11-22T21:15:42.895Z,8.88
2022-11-22T21:18:24.805Z,8.86
2022-11-22T21:20:52.727Z,8.89
2022-11-22T21:23:19.425Z,8.92
2022-11-22T21:25:46.400Z,8.90
2022-11-22T21:28:13.161Z,8.91
2022-11-22T21:30:40.102Z,8.91
2022-11-22T21:33:06.803Z,8.91
2022-11-22T21:35:33.428Z,8.91
2022-11-22T21:38:00.260Z,8.89
2022-11-22T21:40:26.916Z,8.88
2022-11-22T21:42:53.675Z,8.92
2022-11-22T21:45:20.664Z,8.92
2022-11-22T21:47:49.798Z,8.90
2022-11-22T21:50:16.969Z,8.93
2022-11-22T21:52:43.665Z,8.99
2022-11-22T21:55:11.642Z,8.97
2022-11-22T21:57:38.374Z,8.92
2022-11-22T22:00:05.820Z,8.99
2022-11-22T22:02:33.029Z,9.01
2022-11-22T22:04:59.716Z,9.04
2022-11-22T22:10:13.991Z,8.99
2022-11-22T22:12:41.175Z,9.00
2022-11-22T22:15:10.267Z,8.99
2022-11-22T22:17:36.864Z,8.99
2022-11-22T22:20:03.924Z,8.97
2022-11-22T22:22:30.468Z,8.97
2022-11-22T22:24:57.071Z,8.92
2022-11-22T22:27:23.644Z,8.94
2022-11-22T22:29:50.306Z,8.93
2022-11-22T22:32:16.973Z,8.96
2022-11-22T22:34:43.563Z,8.94
2022-11-22T22:37:10.157Z,8.94
2022-11-22T22:39:36.813Z,8.92
2022-11-22T22:42:03.477Z,8.94
2022-11-22T22:44:30.168Z,8.90
2022-11-22T22:46:56.774Z,8.84
2022-11-22T22:49:23.489Z,8.83
2022-11-22T22:51:51.571Z,8.84
2022-11-22T22:54:18.195Z,8.83
2022-11-22T22:56:45.149Z,8.82
2022-11-22T22:59:11.743Z,8.85
2022-11-22T23:01:38.446Z,8.89
2022-11-22T23:04:05.485Z,8.87
2022-11-22T23:06:37.545Z,8.88
2022-11-22T23:09:06.241Z,8.82
2022-11-22T23:11:52.129Z,8.74
2022-11-22T23:14:23.569Z,8.76
2022-11-22T23:16:55.936Z,8.80
2022-11-22T23:19:24.353Z,8.84
2022-11-22T23:21:51.068Z,8.89
2022-11-22T23:24:17.686Z,8.87
2022-11-22T23:26:44.454Z,8.88
2022-11-22T23:29:11.244Z,8.87
2022-11-22T23:31:38.032Z,8.90
2022-11-22T23:34:04.709Z,8.90
2022-11-22T23:36:34.784Z,8.91
2022-11-22T23:39:04.165Z,8.93
2022-11-22T23:41:31.059Z,8.95
2022-11-22T23:43:57.690Z,9.01
2022-11-22T23:46:27.464Z,9.05
2022-11-22T23:48:59.231Z,9.04
2022-11-22T23:51:27.142Z,9.01
2022-11-22T23:53:58.058Z,9.02
2022-11-22T23:56:24.969Z,9.03
2022-11-22T23:58:52.076Z,9.03
